createdAt,value
2023-02-11T00:00:26.516Z,32.00
2023-02-11T00:01:26.542Z,31.20
2023-02-11T00:02:26.517Z,30.80
2023-02-11T00:03:26.570Z,32.00
2023-02-11T00:04:26.484Z,31.00
2023-02-11T00:05:26.482Z,31.10
2023-02-11T00:06:26.494Z,31.50
2023-02-11T00:07:26.457Z,32.50
2023-02-11T00:08:26.445Z,31.50
2023-02-11T00:09:26.441Z,32.10
2023-02-11T00:10:26.441Z,30.80
2023-02-11T00:11:26.495Z,31.90
2023-02-11T00:12:26.411Z,30.20
2023-02-11T00:13:26.422Z,31.20
2023-02-11T00:14:26.412Z,30.80
2023-02-11T00:15:26.401Z,32.40
2023-02-11T00:16:26.489Z,31.70
2023-02-11T00:17:26.379Z,30.50
2023-02-11T00:18:26.379Z,31.90
2023-02-11T00:19:26.357Z,31.30
2023-02-11T00:20:26.364Z,30.40
2023-02-11T00:21:26.381Z,30.50
2023-02-11T00:22:26.340Z,30.70
2023-02-11T00:23:27.336Z,30.70
2023-02-11T00:24:26.321Z,30.30
2023-02-11T00:25:26.311Z,30.10
2023-02-11T00:26:26.350Z,31.30
2023-02-11T00:27:26.303Z,32.00
2023-02-11T00:28:26.301Z,30.10
2023-02-11T00:29:26.284Z,30.30
2023-02-11T00:30:26.299Z,29.80
2023-02-11T00:31:26.450Z,29.80
2023-02-11T00:32:26.257Z,29.70
2023-02-11T00:33:26.245Z,30.40
2023-02-11T00:34:26.239Z,29.40
2023-02-11T00:35:26.228Z,29.70
2023-02-11T00:36:26.261Z,29.60
2023-02-11T00:37:26.217Z,28.20
2023-02-11T00:38:26.212Z,28.60
2023-02-11T00:39:26.200Z,29.10
2023-02-11T00:40:26.194Z,29.50
2023-02-11T00:41:26.225Z,28.80
2023-02-11T00:42:26.178Z,29.60
2023-02-11T00:43:26.173Z,29.40
2023-02-11T00:44:26.156Z,29.10
2023-02-11T00:45:26.162Z,29.60
2023-02-11T00:46:26.196Z,29.60
2023-02-11T00:47:26.144Z,30.00
2023-02-11T00:48:26.138Z,29.50
2023-02-11T00:49:26.141Z,30.80
2023-02-11T00:50:26.129Z,29.90
2023-02-11T00:51:26.145Z,30.10
2023-02-11T00:52:26.100Z,29.40
2023-02-11T00:53:26.100Z,30.60
2023-02-11T00:54:28.389Z,31.10
2023-02-11T00:55:26.084Z,31.00
2023-02-11T00:56:26.114Z,29.20
2023-02-11T00:57:26.057Z,30.40
2023-02-11T00:58:26.054Z,30.60
2023-02-11T00:59:26.061Z,30.40
2023-02-11T01:00:26.045Z,30.90
2023-02-11T01:01:26.077Z,30.50
2023-02-11T01:02:26.056Z,28.80
2023-02-11T01:03:26.028Z,30.20
2023-02-11T01:04:26.007Z,30.10
2023-02-11T01:05:26.036Z,30.60
2023-02-11T01:06:26.003Z,30.40
2023-02-11T01:07:26.024Z,31.90
2023-02-11T01:08:25.980Z,32.70
2023-02-11T01:09:25.967Z,29.30
2023-02-11T01:10:25.960Z,31.40
2023-02-11T01:11:25.962Z,30.60
2023-02-11T01:12:25.977Z,32.40
2023-02-11T01:13:25.953Z,30.10
2023-02-11T01:14:25.939Z,30.70
2023-02-11T01:15:25.931Z,32.50
2023-02-11T01:16:25.945Z,31.20
2023-02-11T01:17:25.940Z,31.10
2023-02-11T01:18:25.908Z,34.20
2023-02-11T01:19:25.926Z,31.10
2023-02-11T01:20:25.888Z,32.40
2023-02-11T01:21:25.878Z,31.90
2023-02-11T01:22:25.900Z,31.70
2023-02-11T01:23:25.868Z,32.50
2023-02-11T01:24:25.859Z,33.20
2023-02-11T01:25:25.853Z,33.30
2023-02-11T01:26:25.843Z,33.10
2023-02-11T01:27:25.852Z,32.00
2023-02-11T01:28:25.868Z,32.80
2023-02-11T01:29:25.828Z,31.70
2023-02-11T01:30:25.810Z,31.90
2023-02-11T01:31:25.865Z,32.90
2023-02-11T01:32:25.823Z,32.60
2023-02-11T01:33:25.794Z,31.20
2023-02-11T01:34:25.790Z,32.20
2023-02-11T01:35:25.773Z,31.70
2023-02-11T01:36:25.768Z,33.30
2023-02-11T01:37:25.787Z,32.70
2023-02-11T01:38:25.752Z,30.70
2023-02-11T01:39:25.742Z,29.90
2023-02-11T01:40:25.738Z,30.90
2023-02-11T01:41:25.727Z,31.20
2023-02-11T01:42:25.747Z,30.50
2023-02-11T01:43:25.712Z,30.40
2023-02-11T01:44:25.712Z,31.20
2023-02-11T01:45:25.698Z,30.20
2023-02-11T01:46:25.716Z,29.60
2023-02-11T01:47:25.709Z,30.80
2023-02-11T01:48:25.686Z,30.10
2023-02-11T01:49:25.772Z,29.50
2023-02-11T01:50:25.659Z,29.90
2023-02-11T01:51:25.659Z,30.50
2023-02-11T01:52:25.669Z,28.70
2023-02-11T01:53:25.641Z,29.60
2023-02-11T01:54:25.627Z,30.30
2023-02-11T01:55:25.626Z,30.50
2023-02-11T01:56:25.613Z,29.30
2023-02-11T01:57:25.635Z,29.50
2023-02-11T01:58:25.601Z,30.50
2023-02-11T01:59:25.598Z,29.70
2023-02-11T02:00:25.588Z,30.60
2023-02-11T02:01:25.603Z,29.30
2023-02-11T02:02:25.592Z,29.90
2023-02-11T02:03:25.607Z,29.50
2023-02-11T02:04:25.547Z,29.90
2023-02-11T02:05:25.543Z,29.80
2023-02-11T02:06:25.542Z,30.40
2023-02-11T02:07:25.566Z,29.50
2023-02-11T02:08:25.527Z,29.70
2023-02-11T02:09:25.530Z,30.10
2023-02-11T02:10:25.512Z,29.70
2023-02-11T02:11:25.500Z,29.10
2023-02-11T02:12:25.526Z,29.00
2023-02-11T02:13:25.482Z,29.50
2023-02-11T02:14:25.479Z,29.30
2023-02-11T02:15:25.480Z,30.10
2023-02-11T02:16:25.481Z,29.80
2023-02-11T02:17:25.482Z,29.70
2023-02-11T02:18:25.436Z,30.70
2023-02-11T02:19:25.430Z,28.90
2023-02-11T02:20:25.430Z,30.20
2023-02-11T02:21:25.420Z,28.60
2023-02-11T02:22:25.402Z,27.90
2023-02-11T02:23:26.424Z,29.00
2023-02-11T02:24:25.408Z,29.60
2023-02-11T02:25:25.385Z,28.50
2023-02-11T02:26:25.384Z,27.60
2023-02-11T02:27:25.381Z,28.50
2023-02-11T02:28:25.468Z,29.20
2023-02-11T02:29:25.362Z,29.60
2023-02-11T02:30:25.395Z,28.70
2023-02-11T02:31:25.359Z,29.20
2023-02-11T02:32:25.342Z,26.80
2023-02-11T02:33:25.368Z,29.00
2023-02-11T02:34:25.334Z,27.60
2023-02-11T02:35:25.325Z,27.40
2023-02-11T02:36:25.320Z,28.30
2023-02-11T02:37:25.298Z,27.80
2023-02-11T02:38:25.326Z,28.00
2023-02-11T02:39:25.284Z,26.80
2023-02-11T02:40:25.275Z,27.60
2023-02-11T02:41:25.273Z,28.00
2023-02-11T02:42:25.262Z,28.70
2023-02-11T02:43:25.268Z,28.50
2023-02-11T02:44:25.245Z,27.20
2023-02-11T02:45:25.237Z,27.80
2023-02-11T02:46:25.288Z,28.50
2023-02-11T02:47:25.216Z,29.00
2023-02-11T02:48:25.244Z,27.70
2023-02-11T02:49:25.210Z,29.10
2023-02-11T02:50:25.200Z,27.90
2023-02-11T02:51:25.190Z,27.70
2023-02-11T02:52:25.178Z,28.30
2023-02-11T02:53:25.203Z,29.30
2023-02-11T02:54:25.176Z,28.20
2023-02-11T02:55:25.158Z,28.80
2023-02-11T02:56:25.169Z,29.80
2023-02-11T02:57:25.139Z,28.50
2023-02-11T02:58:25.177Z,28.40
2023-02-11T02:59:25.133Z,29.40
2023-02-11T03:00:25.125Z,29.30
2023-02-11T03:01:25.117Z,29.50
2023-02-11T03:02:25.102Z,29.10
2023-02-11T03:03:25.111Z,30.10
2023-02-11T03:04:25.087Z,30.00
2023-02-11T03:05:25.073Z,30.10
2023-02-11T03:06:25.071Z,29.40
2023-02-11T03:07:25.057Z,28.20
2023-02-11T03:08:25.083Z,29.20
2023-02-11T03:09:25.050Z,30.30
2023-02-11T03:10:25.047Z,29.60
2023-02-11T03:11:25.034Z,29.80
2023-02-11T03:12:25.019Z,28.20
2023-02-11T03:13:25.046Z,29.10
2023-02-11T03:14:25.005Z,27.30
2023-02-11T03:15:25.005Z,29.20
2023-02-11T03:16:25.074Z,28.50
2023-02-11T03:17:24.982Z,29.40
2023-02-11T03:18:25.000Z,28.40
2023-02-11T03:19:24.963Z,27.00
2023-02-11T03:20:24.965Z,29.50
2023-02-11T03:21:24.955Z,29.00
2023-02-11T03:22:24.943Z,27.60
2023-02-11T03:23:24.976Z,28.00
2023-02-11T03:24:24.932Z,27.90
2023-02-11T03:25:24.921Z,29.00
2023-02-11T03:26:24.912Z,28.60
2023-02-11T03:27:24.913Z,28.40
2023-02-11T03:28:24.973Z,28.70
2023-02-11T03:29:24.893Z,29.10
2023-02-11T03:30:24.884Z,29.80
2023-02-11T03:31:24.990Z,29.20
2023-02-11T03:32:24.878Z,30.30
2023-02-11T03:33:24.893Z,28.20
2023-02-11T03:34:24.864Z,29.20
2023-02-11T03:35:24.842Z,28.60
2023-02-11T03:36:24.842Z,27.70
2023-02-11T03:37:24.843Z,27.30
2023-02-11T03:38:24.823Z,27.30
2023-02-11T03:39:24.849Z,28.00
2023-02-11T03:40:24.808Z,28.00
2023-02-11T03:41:24.802Z,28.30
2023-02-11T03:42:24.799Z,28.30
2023-02-11T03:43:24.822Z,28.00
2023-02-11T03:44:24.796Z,27.70
2023-02-11T03:45:24.771Z,28.80
2023-02-11T03:46:24.758Z,28.20
2023-02-11T03:47:24.748Z,26.60
2023-02-11T03:48:24.744Z,27.90
2023-02-11T03:49:24.768Z,28.10
2023-02-11T03:50:24.721Z,27.90
2023-02-11T03:51:24.726Z,28.70
2023-02-11T03:52:24.739Z,28.80
2023-02-11T03:53:24.710Z,28.50
2023-02-11T03:54:24.718Z,29.20
2023-02-11T03:55:24.691Z,27.90
2023-02-11T03:56:24.687Z,27.40
2023-02-11T03:57:24.666Z,29.40
2023-02-11T03:58:24.665Z,26.90
2023-02-11T03:59:24.692Z,28.30
2023-02-11T04:00:24.654Z,28.10
2023-02-11T04:01:24.712Z,28.30
2023-02-11T04:02:24.648Z,27.80
2023-02-11T04:03:24.643Z,28.70
2023-02-11T04:04:24.645Z,29.00
2023-02-11T04:05:24.612Z,28.90
2023-02-11T04:06:24.597Z,28.30
2023-02-11T04:07:24.599Z,29.30
2023-02-11T04:08:24.583Z,28.40
2023-02-11T04:09:24.606Z,28.00
2023-02-11T04:10:24.573Z,28.30
2023-02-11T04:11:24.567Z,28.50
2023-02-11T04:12:24.568Z,28.40
2023-02-11T04:13:24.540Z,27.70
2023-02-11T04:14:24.560Z,28.60
2023-02-11T04:15:24.529Z,28.10
2023-02-11T04:16:24.554Z,27.60
2023-02-11T04:17:24.528Z,26.90
2023-02-11T04:18:25.509Z,27.70
2023-02-11T04:19:24.521Z,26.80
2023-02-11T04:20:24.494Z,27.70
2023-02-11T04:21:24.513Z,27.80
2023-02-11T04:22:24.473Z,29.40
2023-02-11T04:23:24.474Z,27.20
2023-02-11T04:24:24.482Z,28.90
2023-02-11T04:25:24.452Z,27.50
2023-02-11T04:26:24.446Z,28.50
2023-02-11T04:27:24.438Z,27.50
2023-02-11T04:28:24.467Z,27.60
2023-02-11T04:29:24.450Z,28.90
2023-02-11T04:30:24.412Z,27.50
2023-02-11T04:31:24.536Z,27.50
2023-02-11T04:32:24.437Z,27.70
2023-02-11T04:33:24.431Z,28.40
2023-02-11T04:34:24.435Z,29.10
2023-02-11T04:35:24.370Z,29.40
2023-02-11T04:36:24.379Z,29.10
2023-02-11T04:37:24.371Z,30.50
2023-02-11T04:38:24.350Z,28.70
2023-02-11T04:39:24.377Z,29.00
2023-02-11T04:40:24.334Z,30.00
2023-02-11T04:41:24.323Z,29.40
2023-02-11T04:42:24.329Z,28.80
2023-02-11T04:43:24.313Z,28.00
2023-02-11T04:44:24.328Z,27.30
2023-02-11T04:45:24.299Z,27.90
2023-02-11T04:46:24.340Z,28.10
2023-02-11T04:47:24.285Z,28.60
2023-02-11T04:48:24.265Z,28.90
2023-02-11T04:49:24.287Z,28.40
2023-02-11T04:50:24.275Z,29.30
2023-02-11T04:51:24.247Z,28.00
2023-02-11T04:52:24.247Z,26.00
2023-02-11T04:53:24.253Z,29.70
2023-02-11T04:54:24.271Z,28.80
2023-02-11T04:55:24.214Z,28.30
2023-02-11T04:56:24.220Z,30.10
2023-02-11T04:57:24.205Z,29.70
2023-02-11T04:58:24.196Z,29.30
2023-02-11T04:59:24.188Z,29.60
2023-02-11T05:00:24.203Z,28.80
2023-02-11T05:01:24.246Z,30.40
2023-02-11T05:02:24.181Z,27.70
2023-02-11T05:03:24.157Z,28.40
2023-02-11T05:04:24.212Z,29.00
2023-02-11T05:05:24.172Z,30.00
2023-02-11T05:06:24.136Z,28.90
2023-02-11T05:07:24.125Z,28.40
2023-02-11T05:08:24.115Z,29.00
2023-02-11T05:09:24.103Z,27.90
2023-02-11T05:10:24.132Z,27.90
2023-02-11T05:11:24.087Z,29.10
2023-02-11T05:12:24.074Z,29.20
2023-02-11T05:13:24.070Z,28.30
2023-02-11T05:14:24.072Z,28.10
2023-02-11T05:15:24.095Z,27.70
2023-02-11T05:16:24.079Z,26.80
2023-02-11T05:17:24.042Z,29.20
2023-02-11T05:18:24.039Z,27.50
2023-02-11T05:19:24.023Z,28.80
2023-02-11T05:20:24.041Z,27.40
2023-02-11T05:21:24.012Z,27.80
2023-02-11T05:22:24.005Z,28.40
2023-02-11T05:23:23.998Z,30.20
2023-02-11T05:24:23.999Z,28.40
2023-02-11T05:25:24.001Z,27.90
2023-02-11T05:26:23.971Z,28.30
2023-02-11T05:27:23.960Z,29.80
2023-02-11T05:28:24.028Z,28.90
2023-02-11T05:29:23.951Z,30.00
2023-02-11T05:30:23.969Z,29.40
2023-02-11T05:31:23.954Z,29.40
2023-02-11T05:32:23.925Z,28.90
2023-02-11T05:33:23.916Z,29.20
2023-02-11T05:34:23.914Z,29.80
2023-02-11T05:35:23.915Z,30.10
2023-02-11T05:36:24.895Z,30.00
2023-02-11T05:37:23.942Z,28.80
2023-02-11T05:38:23.876Z,29.30
2023-02-11T05:39:23.866Z,29.20
2023-02-11T05:40:23.899Z,29.10
2023-02-11T05:41:23.862Z,29.80
2023-02-11T05:42:23.844Z,29.30
2023-02-11T05:43:23.833Z,28.90
2023-02-11T05:44:23.830Z,30.80
2023-02-11T05:45:23.855Z,29.50
2023-02-11T05:46:23.869Z,28.10
2023-02-11T05:47:23.813Z,29.40
2023-02-11T05:48:23.812Z,28.60
2023-02-11T05:49:23.798Z,28.60
2023-02-11T05:50:23.806Z,29.80
2023-02-11T05:51:23.779Z,29.50
2023-02-11T05:52:23.772Z,29.70
2023-02-11T05:53:23.764Z,29.20
2023-02-11T05:54:23.759Z,30.30
2023-02-11T05:55:23.769Z,28.40
2023-02-11T05:56:23.740Z,29.50
2023-02-11T05:57:23.731Z,28.30
2023-02-11T05:58:23.721Z,30.10
2023-02-11T05:59:23.713Z,29.80
2023-02-11T06:00:23.745Z,29.70
2023-02-11T06:01:23.704Z,28.80
2023-02-11T06:02:23.726Z,29.60
2023-02-11T06:03:23.751Z,29.00
2023-02-11T06:04:23.682Z,29.00
2023-02-11T06:05:23.695Z,29.10
2023-02-11T06:06:23.658Z,28.40
2023-02-11T06:07:23.662Z,27.30
2023-02-11T06:08:23.657Z,27.30
2023-02-11T06:09:23.637Z,28.30
2023-02-11T06:10:23.649Z,29.50
2023-02-11T06:11:23.617Z,28.70
2023-02-11T06:12:23.621Z,30.20
2023-02-11T06:13:23.602Z,29.50
2023-02-11T06:14:23.606Z,27.30
2023-02-11T06:15:23.616Z,27.80
2023-02-11T06:16:23.656Z,29.00
2023-02-11T06:17:23.569Z,26.20
2023-02-11T06:18:23.564Z,28.30
2023-02-11T06:19:23.554Z,28.40
2023-02-11T06:20:23.585Z,28.40
2023-02-11T06:21:26.461Z,28.30
2023-02-11T06:22:25.535Z,29.60
2023-02-11T06:23:23.565Z,26.40
2023-02-11T06:24:44.296Z,27.80
2023-02-11T06:25:25.543Z,27.80
2023-02-11T06:26:23.521Z,27.70
2023-02-11T06:27:23.501Z,29.20
2023-02-11T06:28:23.542Z,28.80
2023-02-11T06:29:23.488Z,29.50
2023-02-11T06:30:23.505Z,28.30
2023-02-11T06:31:23.576Z,28.70
2023-02-11T06:32:43.464Z,27.60
2023-02-11T06:33:25.476Z,27.90
2023-02-11T06:34:23.443Z,29.30
2023-02-11T06:35:23.456Z,27.70
2023-02-11T06:36:23.472Z,29.00
2023-02-11T06:37:23.424Z,28.90
2023-02-11T06:38:23.418Z,28.60
2023-02-11T06:39:23.407Z,28.00
2023-02-11T06:40:23.415Z,28.10
2023-02-11T06:41:23.415Z,29.40
2023-02-11T06:42:23.381Z,27.80
2023-02-11T06:43:23.382Z,28.40
2023-02-11T06:44:23.366Z,29.00
2023-02-11T06:45:23.370Z,27.70
2023-02-11T06:46:23.507Z,27.40
2023-02-11T06:47:23.344Z,29.00
2023-02-11T06:48:23.338Z,28.70
2023-02-11T06:49:23.333Z,27.70
2023-02-11T06:50:23.322Z,27.50
2023-02-11T06:51:23.339Z,27.40
2023-02-11T06:52:23.310Z,27.90
2023-02-11T06:53:23.302Z,27.70
2023-02-11T06:54:23.291Z,28.00
2023-02-11T06:55:23.283Z,28.30
2023-02-11T06:56:23.300Z,29.00
2023-02-11T06:57:23.262Z,27.60
2023-02-11T06:58:23.265Z,27.80
2023-02-11T06:59:23.254Z,28.80
2023-02-11T07:00:23.247Z,27.90
2023-02-11T07:01:23.310Z,30.30
2023-02-11T07:02:23.230Z,27.50
2023-02-11T07:03:23.218Z,28.20
2023-02-11T07:04:23.207Z,28.30
2023-02-11T07:05:23.236Z,28.40
2023-02-11T07:06:23.229Z,28.20
2023-02-11T07:07:23.181Z,28.70
2023-02-11T07:08:23.178Z,28.00
2023-02-11T07:09:23.176Z,27.50
2023-02-11T07:10:23.162Z,28.50
2023-02-11T07:11:23.178Z,27.80
2023-02-11T07:12:23.154Z,29.70
2023-02-11T07:13:23.134Z,29.70
2023-02-11T07:14:23.135Z,29.00
2023-02-11T07:15:23.121Z,28.10
2023-02-11T07:16:23.177Z,28.70
2023-02-11T07:17:23.108Z,27.40
2023-02-11T07:18:23.104Z,29.30
2023-02-11T07:19:23.094Z,28.20
2023-02-11T07:20:23.093Z,29.90
2023-02-11T07:21:23.099Z,27.90
2023-02-11T07:22:23.071Z,28.80
2023-02-11T07:23:23.044Z,28.10
2023-02-11T07:24:24.047Z,28.30
2023-02-11T07:25:23.046Z,28.50
2023-02-11T07:26:23.048Z,27.90
2023-02-11T07:27:23.062Z,27.70
2023-02-11T07:28:23.062Z,27.90
2023-02-11T07:29:23.012Z,27.90
2023-02-11T07:30:23.000Z,28.10
2023-02-11T07:31:23.139Z,28.00
2023-02-11T07:32:23.011Z,27.20
2023-02-11T07:33:22.977Z,28.60
2023-02-11T07:34:23.023Z,28.80
2023-02-11T07:35:22.964Z,28.10
2023-02-11T07:36:22.961Z,28.00
2023-02-11T07:37:22.978Z,28.80
2023-02-11T07:38:22.942Z,29.20
2023-02-11T07:39:22.938Z,28.10
2023-02-11T07:40:22.926Z,28.20
2023-02-11T07:41:22.927Z,29.10
2023-02-11T07:42:22.938Z,27.60
2023-02-11T07:43:22.900Z,28.40
2023-02-11T07:44:22.901Z,28.40
2023-02-11T07:45:22.899Z,29.50
2023-02-11T07:46:22.983Z,28.90
2023-02-11T07:47:22.899Z,28.60
2023-02-11T07:48:22.867Z,28.20
2023-02-11T07:49:22.870Z,28.10
2023-02-11T07:50:22.851Z,28.80
2023-02-11T07:51:22.849Z,28.20
2023-02-11T07:52:22.857Z,28.20
2023-02-11T07:53:22.830Z,27.30
2023-02-11T07:54:22.813Z,26.90
2023-02-11T07:55:22.814Z,28.70
2023-02-11T07:56:22.808Z,28.10
2023-02-11T07:57:22.823Z,27.60
2023-02-11T07:58:22.780Z,28.10
2023-02-11T07:59:22.773Z,29.10
2023-02-11T08:00:22.765Z,28.00
2023-02-11T08:01:22.813Z,28.60
2023-02-11T08:02:22.848Z,27.60
2023-02-11T08:03:22.742Z,27.90
2023-02-11T08:04:22.733Z,27.50
2023-02-11T08:05:22.730Z,28.40
2023-02-11T08:06:22.721Z,29.90
2023-02-11T08:07:22.748Z,27.90
2023-02-11T08:08:22.703Z,28.10
2023-02-11T08:09:22.694Z,29.30
2023-02-11T08:10:22.681Z,29.00
2023-02-11T08:11:22.688Z,28.30
2023-02-11T08:12:22.702Z,28.20
2023-02-11T08:13:22.662Z,28.30
2023-02-11T08:14:22.669Z,28.40
2023-02-11T08:15:22.657Z,29.40
2023-02-11T08:16:22.679Z,30.40
2023-02-11T08:17:22.656Z,30.90
2023-02-11T08:18:22.618Z,28.50
2023-02-11T08:19:22.612Z,29.00
2023-02-11T08:20:22.605Z,29.20
2023-02-11T08:21:22.615Z,30.50
2023-02-11T08:22:22.615Z,29.20
2023-02-11T08:23:22.590Z,28.80
2023-02-11T08:24:22.575Z,29.30
2023-02-11T08:25:22.563Z,28.30
2023-02-11T08:26:22.555Z,27.30
2023-02-11T08:27:22.569Z,29.60
2023-02-11T08:28:22.591Z,30.30
2023-02-11T08:29:22.537Z,29.00
2023-02-11T08:30:22.526Z,29.80
2023-02-11T08:31:22.669Z,29.90
2023-02-11T08:32:22.620Z,28.60
2023-02-11T08:33:22.492Z,28.50
2023-02-11T08:34:23.494Z,28.70
2023-02-11T08:35:22.487Z,29.30
2023-02-11T08:36:22.476Z,29.10
2023-02-11T08:37:22.491Z,28.90
2023-02-11T08:38:22.467Z,28.10
2023-02-11T08:39:22.521Z,30.40
2023-02-11T08:40:22.447Z,29.90
2023-02-11T08:41:22.436Z,28.60
2023-02-11T08:42:22.476Z,29.10
2023-02-11T08:43:22.419Z,28.90
2023-02-11T08:44:22.419Z,30.80
2023-02-11T08:45:22.405Z,29.90
2023-02-11T08:46:22.411Z,30.00
2023-02-11T08:47:22.424Z,29.30
2023-02-11T08:48:22.390Z,29.90
2023-02-11T08:49:22.371Z,29.70
2023-02-11T08:50:22.366Z,31.20
2023-02-11T08:51:22.366Z,29.20
2023-02-11T08:52:22.374Z,29.70
2023-02-11T08:53:22.364Z,28.50
2023-02-11T08:54:22.340Z,28.90
2023-02-11T08:55:22.329Z,29.60
2023-02-11T08:56:22.335Z,29.80
2023-02-11T08:57:22.326Z,26.80
2023-02-11T08:58:22.342Z,29.00
2023-02-11T08:59:22.312Z,29.00
2023-02-11T09:00:22.299Z,29.80
2023-02-11T09:01:23.078Z,29.30
2023-02-11T09:02:23.307Z,29.50
2023-02-11T09:03:22.307Z,30.90
2023-02-11T09:04:22.283Z,29.90
2023-02-11T09:05:22.260Z,30.70
2023-02-11T09:06:22.261Z,30.30
2023-02-11T09:07:22.245Z,29.40
2023-02-11T09:08:22.266Z,29.30
2023-02-11T09:09:22.228Z,30.00
2023-02-11T09:10:22.222Z,30.20
2023-02-11T09:11:22.200Z,30.60
2023-02-11T09:12:22.204Z,31.80
2023-02-11T09:13:22.218Z,30.80
2023-02-11T09:14:22.202Z,28.80
2023-02-11T09:15:22.192Z,31.50
2023-02-11T09:16:22.201Z,32.30
2023-02-11T09:17:22.162Z,31.20
2023-02-11T09:18:22.179Z,31.70
2023-02-11T09:19:22.149Z,31.20
2023-02-11T09:20:22.143Z,31.50
2023-02-11T09:21:22.153Z,31.90
2023-02-11T09:22:22.154Z,31.10
2023-02-11T09:23:22.185Z,29.70
2023-02-11T09:24:22.111Z,29.20
2023-02-11T09:25:22.105Z,29.10
2023-02-11T09:26:22.092Z,28.90
2023-02-11T09:27:22.084Z,29.80
2023-02-11T09:28:22.122Z,30.00
2023-02-11T09:29:22.083Z,29.00
2023-02-11T09:30:22.113Z,31.80
2023-02-11T09:31:22.194Z,31.20
2023-02-11T09:32:23.054Z,27.80
2023-02-11T09:33:22.079Z,29.20
2023-02-11T09:34:22.037Z,30.50
2023-02-11T09:35:22.027Z,31.70
2023-02-11T09:36:22.022Z,29.20
2023-02-11T09:37:22.013Z,29.80
2023-02-11T09:38:22.035Z,31.40
2023-02-11T09:39:22.000Z,31.70
2023-02-11T09:40:22.991Z,29.50
2023-02-11T09:41:21.988Z,29.80
2023-02-11T09:42:21.983Z,31.00
2023-02-11T09:43:21.997Z,28.90
2023-02-11T09:44:21.965Z,30.40
2023-02-11T09:45:21.958Z,30.40
2023-02-11T09:46:22.028Z,28.70
2023-02-11T09:47:21.933Z,30.20
2023-02-11T09:48:21.951Z,28.80
2023-02-11T09:49:21.923Z,30.20
2023-02-11T09:50:21.984Z,29.70
2023-02-11T09:51:21.908Z,31.00
2023-02-11T09:52:21.899Z,30.10
2023-02-11T09:53:21.917Z,29.70
2023-02-11T09:54:21.888Z,31.20
2023-02-11T09:55:21.885Z,29.20
2023-02-11T09:56:21.874Z,30.20
2023-02-11T09:57:28.611Z,30.40
2023-02-11T09:58:23.892Z,32.40
2023-02-11T09:59:21.850Z,29.90
2023-02-11T10:00:21.905Z,30.10
2023-02-11T10:01:21.984Z,31.40
2023-02-11T10:02:21.829Z,31.80
2023-02-11T10:03:21.854Z,30.10
2023-02-11T10:04:21.842Z,30.60
2023-02-11T10:05:21.807Z,29.50
2023-02-11T10:06:21.800Z,31.20
2023-02-11T10:07:21.838Z,31.20
2023-02-11T10:08:21.805Z,27.60
2023-02-11T10:09:21.775Z,29.40
2023-02-11T10:10:21.802Z,28.50
2023-02-11T10:11:31.178Z,28.60
2023-02-11T10:12:23.769Z,28.40
2023-02-11T10:13:22.769Z,29.70
2023-02-11T10:14:21.749Z,28.50
2023-02-11T10:15:21.739Z,29.90
2023-02-11T10:16:21.728Z,29.10
2023-02-11T10:17:21.711Z,28.70
2023-02-11T10:18:21.727Z,29.80
2023-02-11T10:19:21.694Z,29.70
2023-02-11T10:20:21.904Z,29.70
2023-02-11T10:21:21.683Z,29.40
2023-02-11T10:22:21.675Z,28.90
2023-02-11T10:23:21.685Z,29.30
2023-02-11T10:24:21.654Z,28.60
2023-02-11T10:25:21.662Z,30.50
2023-02-11T10:26:21.638Z,28.80
2023-02-11T10:27:21.655Z,28.90
2023-02-11T10:28:21.712Z,31.10
2023-02-11T10:29:21.623Z,29.10
2023-02-11T10:30:21.611Z,30.30
2023-02-11T10:31:21.738Z,30.60
2023-02-11T10:32:21.595Z,28.10
2023-02-11T10:33:21.616Z,30.20
2023-02-11T10:34:21.582Z,30.70
2023-02-11T10:35:21.586Z,30.00
2023-02-11T10:36:21.571Z,30.00
2023-02-11T10:37:21.562Z,31.40
2023-02-11T10:38:21.557Z,29.80
2023-02-11T10:39:21.579Z,30.10
2023-02-11T10:40:21.538Z,31.10
2023-02-11T10:41:21.528Z,30.60
2023-02-11T10:42:21.525Z,32.30
2023-02-11T10:43:21.517Z,30.90
2023-02-11T10:44:21.536Z,31.30
2023-02-11T10:45:21.503Z,31.40
2023-02-11T10:46:21.594Z,29.40
2023-02-11T10:47:21.483Z,29.70
2023-02-11T10:48:21.489Z,29.30
2023-02-11T10:49:21.491Z,28.90
2023-02-11T10:50:21.465Z,28.80
2023-02-11T10:51:21.469Z,30.90
2023-02-11T10:52:21.446Z,31.10
2023-02-11T10:53:21.448Z,28.70
2023-02-11T10:54:21.458Z,30.10
2023-02-11T10:55:21.422Z,29.10
2023-02-11T10:56:21.414Z,28.40
2023-02-11T10:57:21.409Z,27.80
2023-02-11T10:58:21.397Z,27.60
2023-02-11T10:59:21.729Z,29.00
2023-02-11T11:00:22.380Z,27.20
2023-02-11T11:01:24.682Z,28.90
2023-02-11T11:02:22.369Z,30.10
2023-02-11T11:03:21.358Z,30.50
2023-02-11T11:04:21.424Z,28.30
2023-02-11T11:05:21.341Z,28.10
2023-02-11T11:06:21.364Z,31.00
2023-02-11T11:07:21.333Z,29.80
2023-02-11T11:08:21.318Z,30.10
2023-02-11T11:09:21.341Z,29.90
2023-02-11T11:10:21.300Z,29.80
2023-02-11T11:11:21.295Z,29.30
2023-02-11T11:12:21.288Z,29.00
2023-02-11T11:13:21.316Z,31.00
2023-02-11T11:14:21.294Z,29.40
2023-02-11T11:15:21.266Z,27.70
2023-02-11T11:16:21.336Z,29.30
2023-02-11T11:17:21.254Z,32.10
2023-02-11T11:18:23.043Z,27.10
2023-02-11T11:19:22.263Z,27.40
2023-02-11T11:20:21.221Z,29.50
2023-02-11T11:21:21.216Z,29.10
2023-02-11T11:22:21.211Z,27.40
2023-02-11T11:23:21.198Z,29.90
2023-02-11T11:24:21.230Z,29.90
2023-02-11T11:25:21.187Z,25.60
2023-02-11T11:26:21.189Z,29.50
2023-02-11T11:27:21.170Z,26.70
2023-02-11T11:28:21.200Z,27.30
2023-02-11T11:29:21.187Z,27.90
2023-02-11T11:30:21.145Z,28.10
2023-02-11T11:31:21.272Z,27.80
2023-02-11T11:32:21.130Z,28.40
2023-02-11T11:33:21.120Z,28.00
2023-02-11T11:34:21.139Z,27.30
2023-02-11T11:35:21.117Z,27.00
2023-02-11T11:36:21.115Z,27.90
2023-02-11T11:37:21.092Z,30.60
2023-02-11T11:38:21.092Z,26.70
2023-02-11T11:39:21.114Z,27.40
2023-02-11T11:40:21.084Z,29.70
2023-02-11T11:41:21.075Z,29.40
2023-02-11T11:42:21.058Z,28.00
2023-02-11T11:43:23.205Z,26.70
2023-02-11T11:44:22.061Z,27.60
2023-02-11T11:45:21.025Z,28.40
2023-02-11T11:46:21.034Z,26.30
2023-02-11T11:47:21.014Z,27.20
2023-02-11T11:48:21.000Z,28.20
2023-02-11T11:49:21.037Z,27.00
2023-02-11T11:50:21.287Z,28.10
2023-02-11T11:51:21.977Z,27.80
2023-02-11T11:52:20.987Z,27.00
2023-02-11T11:53:21.963Z,27.00
2023-02-11T11:54:20.984Z,26.50
2023-02-11T11:55:20.962Z,27.20
2023-02-11T11:56:20.939Z,26.60
2023-02-11T11:57:20.961Z,26.60
2023-02-11T11:58:20.934Z,26.10
2023-02-11T11:59:20.921Z,24.70
2023-02-11T12:00:20.940Z,25.80
2023-02-11T12:01:20.905Z,27.70
2023-02-11T12:02:21.007Z,27.20
2023-02-11T12:03:20.936Z,25.20
2023-02-11T12:04:20.889Z,24.90
2023-02-11T12:05:20.909Z,26.20
2023-02-11T12:06:20.902Z,25.40
2023-02-11T12:07:21.113Z,26.00
2023-02-11T12:08:20.856Z,25.10
2023-02-11T12:09:20.853Z,26.00
2023-02-11T12:10:20.870Z,25.50
2023-02-11T12:11:20.837Z,25.50
2023-02-11T12:12:20.827Z,24.30
2023-02-11T12:13:20.819Z,24.90
2023-02-11T12:14:20.811Z,24.40
2023-02-11T12:15:20.827Z,25.70
2023-02-11T12:16:20.871Z,23.80
2023-02-11T12:17:20.785Z,23.60
2023-02-11T12:18:20.780Z,24.50
2023-02-11T12:19:20.772Z,24.40
2023-02-11T12:20:20.792Z,24.00
2023-02-11T12:21:20.756Z,24.70
2023-02-11T12:22:20.749Z,25.30
2023-02-11T12:23:20.744Z,23.60
2023-02-11T12:24:20.731Z,24.90
2023-02-11T12:25:20.747Z,24.70
2023-02-11T12:26:20.725Z,24.30
2023-02-11T12:27:20.713Z,23.40
2023-02-11T12:28:20.734Z,24.10
2023-02-11T12:29:20.694Z,23.90
2023-02-11T12:30:20.716Z,23.50
2023-02-11T12:31:20.854Z,22.70
2023-02-11T12:32:20.671Z,25.10
2023-02-11T12:33:20.661Z,24.50
2023-02-11T12:34:20.650Z,24.50
2023-02-11T12:35:21.678Z,24.60
2023-02-11T12:36:20.644Z,24.30
2023-02-11T12:37:20.642Z,24.60
2023-02-11T12:38:20.626Z,26.10
2023-02-11T12:39:20.618Z,25.20
2023-02-11T12:40:20.641Z,25.00
2023-02-11T12:41:20.606Z,24.90
2023-02-11T12:42:20.598Z,24.50
2023-02-11T12:43:20.594Z,24.90
2023-02-11T12:44:20.577Z,24.90
2023-02-11T12:45:20.597Z,25.00
2023-02-11T12:46:20.611Z,24.40
2023-02-11T12:47:20.553Z,24.00
2023-02-11T12:48:20.542Z,25.20
2023-02-11T12:49:20.540Z,25.80
2023-02-11T12:50:20.552Z,23.60
2023-02-11T12:51:20.524Z,24.50
2023-02-11T12:52:20.518Z,25.00